sensor_id;sensor_type;location;lat;lon;timestamp;P1;durP1;ratioP1;P2;durP2;ratioP2
20810;SDS011;10566;52.928;10.522;2022-09-21T00:00:23;12.90;;;2.37;;
20810;SDS011;10566;52.928;10.522;2022-09-21T00:02:49;7.17;;;2.20;;
20810;SDS011;10566;52.928;10.522;2022-09-21T00:05:16;7.57;;;2.17;;
20810;SDS011;10566;52.928;10.522;2022-09-21T00:07:42;6.90;;;2.37;;
20810;SDS011;10566;52.928;10.522;2022-09-21T00:10:08;4.73;;;2.03;;
20810;SDS011;10566;52.928;10.522;2022-09-21T00:12:35;6.33;;;2.10;;
20810;SDS011;10566;52.928;10.522;2022-09-21T00:15:04;9.00;;;2.20;;
20810;SDS011;10566;52.928;10.522;2022-09-21T00:17:30;9.37;;;2.60;;
20810;SDS011;10566;52.928;10.522;2022-09-21T00:19:56;7.50;;;1.70;;
20810;SDS011;10566;52.928;10.522;2022-09-21T00:22:22;5.27;;;2.13;;
20810;SDS011;10566;52.928;10.522;2022-09-21T00:24:48;6.63;;;2.10;;
20810;SDS011;10566;52.928;10.522;2022-09-21T00:27:14;7.00;;;2.07;;
20810;SDS011;10566;52.928;10.522;2022-09-21T00:29:40;4.23;;;1.60;;
20810;SDS011;10566;52.928;10.522;2022-09-21T00:32:06;8.17;;;2.20;;
20810;SDS011;10566;52.928;10.522;2022-09-21T00:34:32;9.93;;;2.40;;
20810;SDS011;10566;52.928;10.522;2022-09-21T00:36:57;5.30;;;1.90;;
20810;SDS011;10566;52.928;10.522;2022-09-21T00:39:24;9.10;;;2.10;;
20810;SDS011;10566;52.928;10.522;2022-09-21T00:41:50;6.83;;;1.90;;
20810;SDS011;10566;52.928;10.522;2022-09-21T00:44:24;5.73;;;1.63;;
20810;SDS011;10566;52.928;10.522;2022-09-21T00:46:53;7.03;;;3.17;;
20810;SDS011;10566;52.928;10.522;2022-09-21T00:49:20;6.40;;;2.13;;
20810;SDS011;10566;52.928;10.522;2022-09-21T00:51:47;7.13;;;1.90;;
20810;SDS011;10566;52.928;10.522;2022-09-21T00:54:15;8.97;;;1.97;;
20810;SDS011;10566;52.928;10.522;2022-09-21T00:56:43;5.27;;;1.90;;
20810;SDS011;10566;52.928;10.522;2022-09-21T00:59:10;7.40;;;1.87;;
20810;SDS011;10566;52.928;10.522;2022-09-21T01:01:37;4.80;;;1.80;;
20810;SDS011;10566;52.928;10.522;2022-09-21T01:04:03;5.77;;;1.70;;
20810;SDS011;10566;52.928;10.522;2022-09-21T01:06:31;4.80;;;1.60;;
20810;SDS011;10566;52.928;10.522;2022-09-21T01:08:57;7.80;;;1.90;;
20810;SDS011;10566;52.928;10.522;2022-09-21T01:11:28;5.60;;;1.70;;
20810;SDS011;10566;52.928;10.522;2022-09-21T01:24:50;5.53;;;1.80;;
20810;SDS011;10566;52.928;10.522;2022-09-21T01:29:54;6.23;;;1.93;;
20810;SDS011;10566;52.928;10.522;2022-09-21T01:32:24;7.37;;;2.00;;
20810;SDS011;10566;52.928;10.522;2022-09-21T01:34:53;8.13;;;2.00;;
20810;SDS011;10566;52.928;10.522;2022-09-21T01:37:21;4.60;;;1.97;;
20810;SDS011;10566;52.928;10.522;2022-09-21T01:39:52;6.53;;;2.10;;
20810;SDS011;10566;52.928;10.522;2022-09-21T01:42:19;6.27;;;1.97;;
20810;SDS011;10566;52.928;10.522;2022-09-21T01:44:46;7.93;;;1.90;;
20810;SDS011;10566;52.928;10.522;2022-09-21T01:47:12;6.57;;;2.27;;
20810;SDS011;10566;52.928;10.522;2022-09-21T01:49:44;9.13;;;2.30;;
20810;SDS011;10566;52.928;10.522;2022-09-21T01:52:16;8.03;;;2.10;;
20810;SDS011;10566;52.928;10.522;2022-09-21T01:54:49;9.83;;;2.27;;
20810;SDS011;10566;52.928;10.522;2022-09-21T01:59:55;6.73;;;2.20;;
20810;SDS011;10566;52.928;10.522;2022-09-21T02:02:28;8.43;;;2.33;;
20810;SDS011;10566;52.928;10.522;2022-09-21T02:04:56;8.47;;;2.20;;
20810;SDS011;10566;52.928;10.522;2022-09-21T02:07:22;6.63;;;1.87;;
20810;SDS011;10566;52.928;10.522;2022-09-21T02:09:49;8.07;;;2.40;;
20810;SDS011;10566;52.928;10.522;2022-09-21T02:12:15;7.53;;;2.37;;
20810;SDS011;10566;52.928;10.522;2022-09-21T02:14:41;7.30;;;2.50;;
20810;SDS011;10566;52.928;10.522;2022-09-21T02:19:54;7.27;;;2.47;;
20810;SDS011;10566;52.928;10.522;2022-09-21T02:22:45;9.40;;;2.80;;
20810;SDS011;10566;52.928;10.522;2022-09-21T02:25:19;5.57;;;2.40;;
20810;SDS011;10566;52.928;10.522;2022-09-21T02:30:19;6.13;;;2.37;;
20810;SDS011;10566;52.928;10.522;2022-09-21T02:32:48;5.10;;;2.20;;
20810;SDS011;10566;52.928;10.522;2022-09-21T02:35:31;7.97;;;2.60;;
20810;SDS011;10566;52.928;10.522;2022-09-21T02:39:01;8.00;;;2.30;;
20810;SDS011;10566;52.928;10.522;2022-09-21T02:41:03;9.37;;;2.73;;
20810;SDS011;10566;52.928;10.522;2022-09-21T02:43:34;8.33;;;2.70;;
20810;SDS011;10566;52.928;10.522;2022-09-21T02:46:03;9.43;;;2.60;;
20810;SDS011;10566;52.928;10.522;2022-09-21T02:48:35;7.27;;;2.67;;
20810;SDS011;10566;52.928;10.522;2022-09-21T02:51:03;7.03;;;2.20;;
20810;SDS011;10566;52.928;10.522;2022-09-21T02:53:32;7.23;;;2.20;;
20810;SDS011;10566;52.928;10.522;2022-09-21T02:56:00;5.80;;;2.20;;
20810;SDS011;10566;52.928;10.522;2022-09-21T02:58:30;7.20;;;2.03;;
20810;SDS011;10566;52.928;10.522;2022-09-21T03:00:57;8.57;;;2.50;;
20810;SDS011;10566;52.928;10.522;2022-09-21T03:03:24;8.43;;;2.37;;
20810;SDS011;10566;52.928;10.522;2022-09-21T03:05:51;9.17;;;2.23;;
20810;SDS011;10566;52.928;10.522;2022-09-21T03:08:18;7.47;;;2.13;;
20810;SDS011;10566;52.928;10.522;2022-09-21T03:10:44;8.47;;;2.30;;
20810;SDS011;10566;52.928;10.522;2022-09-21T03:13:11;8.10;;;2.20;;
20810;SDS011;10566;52.928;10.522;2022-09-21T03:15:37;10.43;;;2.77;;
20810;SDS011;10566;52.928;10.522;2022-09-21T03:18:04;7.00;;;2.20;;
20810;SDS011;10566;52.928;10.522;2022-09-21T03:20:31;5.90;;;2.60;;
20810;SDS011;10566;52.928;10.522;2022-09-21T03:22:58;9.70;;;2.40;;
20810;SDS011;10566;52.928;10.522;2022-09-21T03:25:24;6.03;;;2.03;;
20810;SDS011;10566;52.928;10.522;2022-09-21T03:27:50;10.40;;;2.40;;
20810;SDS011;10566;52.928;10.522;2022-09-21T03:30:18;7.33;;;2.30;;
20810;SDS011;10566;52.928;10.522;2022-09-21T03:32:45;8.40;;;2.20;;
20810;SDS011;10566;52.928;10.522;2022-09-21T03:35:11;6.83;;;2.27;;
20810;SDS011;10566;52.928;10.522;2022-09-21T03:37:37;6.63;;;2.20;;
20810;SDS011;10566;52.928;10.522;2022-09-21T03:40:03;8.83;;;2.00;;
20810;SDS011;10566;52.928;10.522;2022-09-21T03:42:29;5.00;;;2.30;;
20810;SDS011;10566;52.928;10.522;2022-09-21T03:44:55;6.70;;;2.20;;
20810;SDS011;10566;52.928;10.522;2022-09-21T03:47:21;5.27;;;2.33;;
20810;SDS011;10566;52.928;10.522;2022-09-21T03:49:47;6.90;;;2.50;;
20810;SDS011;10566;52.928;10.522;2022-09-21T03:52:13;8.00;;;2.30;;
20810;SDS011;10566;52.928;10.522;2022-09-21T03:54:39;4.77;;;2.07;;
20810;SDS011;10566;52.928;10.522;2022-09-21T03:57:05;6.83;;;2.27;;
20810;SDS011;10566;52.928;10.522;2022-09-21T03:59:32;5.97;;;1.97;;
20810;SDS011;10566;52.928;10.522;2022-09-21T04:01:59;6.97;;;2.00;;
20810;SDS011;10566;52.928;10.522;2022-09-21T04:04:25;8.13;;;2.10;;
20810;SDS011;10566;52.928;10.522;2022-09-21T04:06:51;8.20;;;2.27;;
20810;SDS011;10566;52.928;10.522;2022-09-21T04:09:17;6.07;;;2.43;;
20810;SDS011;10566;52.928;10.522;2022-09-21T04:11:44;7.43;;;1.90;;
20810;SDS011;10566;52.928;10.522;2022-09-21T04:14:10;8.70;;;2.40;;
20810;SDS011;10566;52.928;10.522;2022-09-21T04:16:37;4.67;;;1.90;;
20810;SDS011;10566;52.928;10.522;2022-09-21T04:19:03;9.00;;;2.40;;
20810;SDS011;10566;52.928;10.522;2022-09-21T04:21:29;6.10;;;2.17;;
20810;SDS011;10566;52.928;10.522;2022-09-21T04:23:56;6.23;;;2.13;;
20810;SDS011;10566;52.928;10.522;2022-09-21T04:28:49;7.40;;;2.10;;
20810;SDS011;10566;52.928;10.522;2022-09-21T04:31:15;6.40;;;2.03;;
20810;SDS011;10566;52.928;10.522;2022-09-21T04:33:41;6.37;;;2.47;;
20810;SDS011;10566;52.928;10.522;2022-09-21T04:36:07;6.50;;;2.20;;
20810;SDS011;10566;52.928;10.522;2022-09-21T04:38:33;5.83;;;2.10;;
20810;SDS011;10566;52.928;10.522;2022-09-21T04:40:59;3.40;;;1.70;;
20810;SDS011;10566;52.928;10.522;2022-09-21T04:43:26;7.43;;;2.40;;
20810;SDS011;10566;52.928;10.522;2022-09-21T04:45:52;7.03;;;2.20;;
20810;SDS011;10566;52.928;10.522;2022-09-21T04:48:18;6.27;;;1.90;;
20810;SDS011;10566;52.928;10.522;2022-09-21T04:50:47;7.20;;;2.30;;
20810;SDS011;10566;52.928;10.522;2022-09-21T04:53:13;9.47;;;2.27;;
20810;SDS011;10566;52.928;10.522;2022-09-21T04:55:39;12.50;;;4.70;;
20810;SDS011;10566;52.928;10.522;2022-09-21T04:58:05;16.73;;;8.30;;
20810;SDS011;10566;52.928;10.522;2022-09-21T05:00:32;21.50;;;12.53;;
20810;SDS011;10566;52.928;10.522;2022-09-21T05:02:58;14.80;;;7.20;;
20810;SDS011;10566;52.928;10.522;2022-09-21T05:05:24;7.80;;;3.40;;
20810;SDS011;10566;52.928;10.522;2022-09-21T05:07:50;7.77;;;3.20;;
20810;SDS011;10566;52.928;10.522;2022-09-21T05:10:16;9.30;;;3.30;;
20810;SDS011;10566;52.928;10.522;2022-09-21T05:12:42;9.93;;;2.87;;
20810;SDS011;10566;52.928;10.522;2022-09-21T05:15:08;7.50;;;2.70;;
20810;SDS011;10566;52.928;10.522;2022-09-21T05:17:38;6.57;;;2.70;;
20810;SDS011;10566;52.928;10.522;2022-09-21T05:20:04;6.37;;;2.47;;
20810;SDS011;10566;52.928;10.522;2022-09-21T05:22:31;8.87;;;2.43;;
20810;SDS011;10566;52.928;10.522;2022-09-21T05:24:57;7.83;;;2.43;;
20810;SDS011;10566;52.928;10.522;2022-09-21T05:27:23;8.37;;;2.90;;
20810;SDS011;10566;52.928;10.522;2022-09-21T05:29:49;4.93;;;2.30;;
20810;SDS011;10566;52.928;10.522;2022-09-21T05:32:18;5.83;;;2.33;;
20810;SDS011;10566;52.928;10.522;2022-09-21T05:35:01;13.20;;;2.83;;
20810;SDS011;10566;52.928;10.522;2022-09-21T05:37:43;8.47;;;2.40;;
20810;SDS011;10566;52.928;10.522;2022-09-21T05:40:10;7.43;;;2.20;;
20810;SDS011;10566;52.928;10.522;2022-09-21T05:42:37;5.23;;;2.13;;
20810;SDS011;10566;52.928;10.522;2022-09-21T05:45:03;7.13;;;2.20;;
20810;SDS011;10566;52.928;10.522;2022-09-21T05:50:14;4.60;;;2.53;;
20810;SDS011;10566;52.928;10.522;2022-09-21T05:52:53;7.00;;;3.13;;
20810;SDS011;10566;52.928;10.522;2022-09-21T05:58:07;7.43;;;2.90;;
20810;SDS011;10566;52.928;10.522;2022-09-21T06:00:42;5.80;;;2.80;;
20810;SDS011;10566;52.928;10.522;2022-09-21T06:03:25;8.77;;;2.73;;
20810;SDS011;10566;52.928;10.522;2022-09-21T06:05:52;7.10;;;2.67;;
20810;SDS011;10566;52.928;10.522;2022-09-21T06:08:18;7.43;;;2.70;;
20810;SDS011;10566;52.928;10.522;2022-09-21T06:10:44;9.37;;;2.97;;
20810;SDS011;10566;52.928;10.522;2022-09-21T06:13:10;8.13;;;3.03;;
20810;SDS011;10566;52.928;10.522;2022-09-21T06:15:36;12.10;;;3.87;;
20810;SDS011;10566;52.928;10.522;2022-09-21T06:18:03;9.40;;;3.63;;
20810;SDS011;10566;52.928;10.522;2022-09-21T06:20:29;11.90;;;4.37;;
20810;SDS011;10566;52.928;10.522;2022-09-21T06:23:02;10.80;;;4.47;;
20810;SDS011;10566;52.928;10.522;2022-09-21T06:25:28;13.03;;;4.47;;
20810;SDS011;10566;52.928;10.522;2022-09-21T06:27:54;11.97;;;4.77;;
20810;SDS011;10566;52.928;10.522;2022-09-21T06:30:21;19.27;;;4.77;;
20810;SDS011;10566;52.928;10.522;2022-09-21T06:32:47;12.93;;;4.43;;
20810;SDS011;10566;52.928;10.522;2022-09-21T06:35:13;10.37;;;4.60;;
20810;SDS011;10566;52.928;10.522;2022-09-21T06:37:39;10.93;;;4.07;;
20810;SDS011;10566;52.928;10.522;2022-09-21T06:40:06;13.67;;;4.37;;
20810;SDS011;10566;52.928;10.522;2022-09-21T06:42:32;9.63;;;4.27;;
20810;SDS011;10566;52.928;10.522;2022-09-21T06:44:58;8.50;;;3.40;;
20810;SDS011;10566;52.928;10.522;2022-09-21T06:47:24;11.43;;;4.00;;
20810;SDS011;10566;52.928;10.522;2022-09-21T06:49:50;11.13;;;3.93;;
20810;SDS011;10566;52.928;10.522;2022-09-21T06:52:17;9.20;;;3.33;;
20810;SDS011;10566;52.928;10.522;2022-09-21T06:54:43;9.77;;;3.67;;
20810;SDS011;10566;52.928;10.522;2022-09-21T06:57:09;9.33;;;3.77;;
20810;SDS011;10566;52.928;10.522;2022-09-21T06:59:35;10.40;;;4.00;;
20810;SDS011;10566;52.928;10.522;2022-09-21T07:02:04;10.30;;;4.07;;
20810;SDS011;10566;52.928;10.522;2022-09-21T07:04:31;10.17;;;3.90;;
20810;SDS011;10566;52.928;10.522;2022-09-21T07:06:57;10.17;;;3.60;;
20810;SDS011;10566;52.928;10.522;2022-09-21T07:09:23;11.87;;;3.27;;
20810;SDS011;10566;52.928;10.522;2022-09-21T07:11:49;12.30;;;3.57;;
20810;SDS011;10566;52.928;10.522;2022-09-21T07:14:15;8.37;;;2.93;;
20810;SDS011;10566;52.928;10.522;2022-09-21T07:16:41;7.70;;;2.90;;
20810;SDS011;10566;52.928;10.522;2022-09-21T07:19:07;7.73;;;2.93;;
20810;SDS011;10566;52.928;10.522;2022-09-21T07:21:33;8.20;;;2.70;;
20810;SDS011;10566;52.928;10.522;2022-09-21T07:23:59;9.47;;;3.03;;
20810;SDS011;10566;52.928;10.522;2022-09-21T07:26:25;13.47;;;3.30;;
20810;SDS011;10566;52.928;10.522;2022-09-21T07:28:51;10.17;;;3.70;;
20810;SDS011;10566;52.928;10.522;2022-09-21T07:31:17;8.30;;;3.50;;
20810;SDS011;10566;52.928;10.522;2022-09-21T07:33:43;10.53;;;3.10;;
20810;SDS011;10566;52.928;10.522;2022-09-21T07:36:13;9.50;;;3.63;;
20810;SDS011;10566;52.928;10.522;2022-09-21T07:38:42;9.03;;;3.47;;
20810;SDS011;10566;52.928;10.522;2022-09-21T07:41:09;10.02;;;3.30;;
20810;SDS011;10566;52.928;10.522;2022-09-21T07:43:36;10.35;;;3.35;;
20810;SDS011;10566;52.928;10.522;2022-09-21T07:46:04;10.02;;;3.42;;
20810;SDS011;10566;52.928;10.522;2022-09-21T07:48:30;7.70;;;3.30;;
20810;SDS011;10566;52.928;10.522;2022-09-21T07:51:00;10.00;;;2.75;;
20810;SDS011;10566;52.928;10.522;2022-09-21T07:53:29;8.18;;;3.45;;
20810;SDS011;10566;52.928;10.522;2022-09-21T07:55:59;9.02;;;2.67;;
20810;SDS011;10566;52.928;10.522;2022-09-21T07:58:25;9.13;;;3.20;;
20810;SDS011;10566;52.928;10.522;2022-09-21T08:01:10;7.25;;;2.85;;
20810;SDS011;10566;52.928;10.522;2022-09-21T08:03:36;6.70;;;2.47;;
20810;SDS011;10566;52.928;10.522;2022-09-21T08:06:02;6.78;;;2.53;;
20810;SDS011;10566;52.928;10.522;2022-09-21T08:08:28;8.23;;;2.60;;
20810;SDS011;10566;52.928;10.522;2022-09-21T08:10:54;7.72;;;2.25;;
20810;SDS011;10566;52.928;10.522;2022-09-21T08:13:26;22.10;;;9.13;;
20810;SDS011;10566;52.928;10.522;2022-09-21T08:15:56;8.75;;;3.67;;
20810;SDS011;10566;52.928;10.522;2022-09-21T08:18:22;7.65;;;2.47;;
20810;SDS011;10566;52.928;10.522;2022-09-21T08:20:54;6.70;;;2.50;;
20810;SDS011;10566;52.928;10.522;2022-09-21T08:23:21;5.70;;;1.90;;
20810;SDS011;10566;52.928;10.522;2022-09-21T08:25:47;5.15;;;2.00;;
20810;SDS011;10566;52.928;10.522;2022-09-21T08:28:13;5.30;;;1.83;;
20810;SDS011;10566;52.928;10.522;2022-09-21T08:30:39;5.85;;;2.45;;
20810;SDS011;10566;52.928;10.522;2022-09-21T08:33:06;6.35;;;1.63;;
20810;SDS011;10566;52.928;10.522;2022-09-21T08:35:33;15.00;;;9.32;;
20810;SDS011;10566;52.928;10.522;2022-09-21T08:37:59;7.90;;;1.80;;
20810;SDS011;10566;52.928;10.522;2022-09-21T08:40:25;4.13;;;1.40;;
20810;SDS011;10566;52.928;10.522;2022-09-21T08:42:55;3.28;;;1.13;;
20810;SDS011;10566;52.928;10.522;2022-09-21T08:45:24;3.65;;;0.85;;
20810;SDS011;10566;52.928;10.522;2022-09-21T08:47:58;4.85;;;1.00;;
20810;SDS011;10566;52.928;10.522;2022-09-21T08:50:36;3.45;;;1.00;;
20810;SDS011;10566;52.928;10.522;2022-09-21T08:53:11;3.22;;;0.90;;
20810;SDS011;10566;52.928;10.522;2022-09-21T08:55:39;4.28;;;0.82;;
20810;SDS011;10566;52.928;10.522;2022-09-21T09:00:40;6.60;;;1.08;;
20810;SDS011;10566;52.928;10.522;2022-09-21T09:08:17;3.30;;;0.90;;
20810;SDS011;10566;52.928;10.522;2022-09-21T09:16:17;2.65;;;0.90;;
20810;SDS011;10566;52.928;10.522;2022-09-21T09:18:45;3.45;;;1.15;;
20810;SDS011;10566;52.928;10.522;2022-09-21T09:21:16;3.70;;;1.10;;
20810;SDS011;10566;52.928;10.522;2022-09-21T09:23:46;4.50;;;0.90;;
20810;SDS011;10566;52.928;10.522;2022-09-21T09:28:46;3.92;;;0.65;;
20810;SDS011;10566;52.928;10.522;2022-09-21T09:31:32;1.92;;;0.60;;
20810;SDS011;10566;52.928;10.522;2022-09-21T09:34:17;2.80;;;0.73;;
20810;SDS011;10566;52.928;10.522;2022-09-21T09:36:49;1.90;;;0.63;;
20810;SDS011;10566;52.928;10.522;2022-09-21T09:39:16;3.20;;;0.88;;
20810;SDS011;10566;52.928;10.522;2022-09-21T09:41:49;5.15;;;0.95;;
20810;SDS011;10566;52.928;10.522;2022-09-21T09:49:37;2.15;;;0.70;;
20810;SDS011;10566;52.928;10.522;2022-09-21T09:52:08;3.53;;;0.70;;
20810;SDS011;10566;52.928;10.522;2022-09-21T09:54:36;3.33;;;0.73;;
20810;SDS011;10566;52.928;10.522;2022-09-21T09:57:03;3.58;;;0.80;;
20810;SDS011;10566;52.928;10.522;2022-09-21T09:59:49;2.60;;;0.60;;
20810;SDS011;10566;52.928;10.522;2022-09-21T10:02:18;2.25;;;0.77;;
20810;SDS011;10566;52.928;10.522;2022-09-21T10:04:55;1.85;;;0.70;;
20810;SDS011;10566;52.928;10.522;2022-09-21T10:10:31;4.20;;;0.80;;
20810;SDS011;10566;52.928;10.522;2022-09-21T10:13:03;3.17;;;0.70;;
20810;SDS011;10566;52.928;10.522;2022-09-21T10:15:30;4.22;;;0.52;;
20810;SDS011;10566;52.928;10.522;2022-09-21T10:17:57;3.08;;;0.93;;
20810;SDS011;10566;52.928;10.522;2022-09-21T10:20:24;3.90;;;0.50;;
20810;SDS011;10566;52.928;10.522;2022-09-21T10:22:53;3.33;;;0.50;;
20810;SDS011;10566;52.928;10.522;2022-09-21T10:25:20;2.10;;;0.60;;
20810;SDS011;10566;52.928;10.522;2022-09-21T10:27:47;3.13;;;0.80;;
20810;SDS011;10566;52.928;10.522;2022-09-21T10:30:30;2.00;;;0.60;;
20810;SDS011;10566;52.928;10.522;2022-09-21T10:32:57;1.95;;;0.55;;
20810;SDS011;10566;52.928;10.522;2022-09-21T10:35:23;1.65;;;0.52;;
20810;SDS011;10566;52.928;10.522;2022-09-21T10:38:09;2.20;;;0.50;;
20810;SDS011;10566;52.928;10.522;2022-09-21T10:40:36;1.80;;;0.35;;
20810;SDS011;10566;52.928;10.522;2022-09-21T10:43:02;1.95;;;0.45;;
20810;SDS011;10566;52.928;10.522;2022-09-21T10:45:29;2.15;;;0.50;;
20810;SDS011;10566;52.928;10.522;2022-09-21T10:47:57;3.25;;;0.52;;
20810;SDS011;10566;52.928;10.522;2022-09-21T10:50:37;2.25;;;0.40;;
20810;SDS011;10566;52.928;10.522;2022-09-21T10:53:23;1.45;;;0.40;;
20810;SDS011;10566;52.928;10.522;2022-09-21T10:56:14;2.20;;;0.50;;
20810;SDS011;10566;52.928;10.522;2022-09-21T11:01:27;3.22;;;0.30;;
20810;SDS011;10566;52.928;10.522;2022-09-21T11:03:59;1.27;;;0.32;;
20810;SDS011;10566;52.928;10.522;2022-09-21T11:06:28;1.55;;;0.40;;
20810;SDS011;10566;52.928;10.522;2022-09-21T11:11:36;1.02;;;0.30;;
20810;SDS011;10566;52.928;10.522;2022-09-21T11:16:54;1.77;;;0.40;;
20810;SDS011;10566;52.928;10.522;2022-09-21T11:27:27;1.98;;;0.40;;
20810;SDS011;10566;52.928;10.522;2022-09-21T11:30:08;3.22;;;0.47;;
20810;SDS011;10566;52.928;10.522;2022-09-21T12:11:45;1.25;;;0.30;;
20810;SDS011;10566;52.928;10.522;2022-09-21T12:14:22;1.23;;;0.30;;
20810;SDS011;10566;52.928;10.522;2022-09-21T12:19:45;1.65;;;0.32;;
20810;SDS011;10566;52.928;10.522;2022-09-21T12:24:40;1.45;;;0.32;;
20810;SDS011;10566;52.928;10.522;2022-09-21T12:27:26;1.13;;;0.30;;
20810;SDS011;10566;52.928;10.522;2022-09-21T12:30:15;1.58;;;0.40;;
20810;SDS011;10566;52.928;10.522;2022-09-21T12:35:14;2.65;;;0.40;;
20810;SDS011;10566;52.928;10.522;2022-09-21T12:37:46;1.00;;;0.40;;
20810;SDS011;10566;52.928;10.522;2022-09-21T12:40:16;1.13;;;0.60;;
20810;SDS011;10566;52.928;10.522;2022-09-21T12:42:54;1.38;;;0.40;;
20810;SDS011;10566;52.928;10.522;2022-09-21T12:45:37;2.65;;;0.32;;
20810;SDS011;10566;52.928;10.522;2022-09-21T12:50:36;3.03;;;0.30;;
20810;SDS011;10566;52.928;10.522;2022-09-21T12:53:03;2.22;;;0.57;;
20810;SDS011;10566;52.928;10.522;2022-09-21T13:08:46;3.28;;;0.40;;
20810;SDS011;10566;52.928;10.522;2022-09-21T13:11:13;0.93;;;0.30;;
20810;SDS011;10566;52.928;10.522;2022-09-21T13:13:46;0.93;;;0.25;;
20810;SDS011;10566;52.928;10.522;2022-09-21T13:16:35;0.52;;;0.30;;
20810;SDS011;10566;52.928;10.522;2022-09-21T13:21:29;1.95;;;0.50;;
20810;SDS011;10566;52.928;10.522;2022-09-21T13:23:57;3.00;;;0.40;;
20810;SDS011;10566;52.928;10.522;2022-09-21T13:26:32;1.92;;;0.40;;
20810;SDS011;10566;52.928;10.522;2022-09-21T13:29:04;0.88;;;0.30;;
20810;SDS011;10566;52.928;10.522;2022-09-21T13:34:20;1.20;;;0.30;;
20810;SDS011;10566;52.928;10.522;2022-09-21T13:37:32;4.65;;;1.80;;
20810;SDS011;10566;52.928;10.522;2022-09-21T13:39:33;1.67;;;0.60;;
20810;SDS011;10566;52.928;10.522;2022-09-21T13:41:59;1.17;;;0.30;;
20810;SDS011;10566;52.928;10.522;2022-09-21T13:44:45;1.55;;;0.30;;
20810;SDS011;10566;52.928;10.522;2022-09-21T13:47:11;0.95;;;0.30;;
20810;SDS011;10566;52.928;10.522;2022-09-21T13:49:45;0.60;;;0.22;;
20810;SDS011;10566;52.928;10.522;2022-09-21T13:54:45;1.13;;;0.30;;
20810;SDS011;10566;52.928;10.522;2022-09-21T13:57:18;1.23;;;0.30;;
20810;SDS011;10566;52.928;10.522;2022-09-21T13:59:46;1.35;;;0.40;;
20810;SDS011;10566;52.928;10.522;2022-09-21T14:02:32;1.25;;;0.35;;
20810;SDS011;10566;52.928;10.522;2022-09-21T14:05:06;3.28;;;0.40;;
20810;SDS011;10566;52.928;10.522;2022-09-21T14:07:34;1.95;;;0.38;;
20810;SDS011;10566;52.928;10.522;2022-09-21T14:10:03;1.02;;;0.30;;
20810;SDS011;10566;52.928;10.522;2022-09-21T14:12:36;3.90;;;0.30;;
20810;SDS011;10566;52.928;10.522;2022-09-21T14:15:51;1.38;;;0.30;;
20810;SDS011;10566;52.928;10.522;2022-09-21T14:21:06;1.85;;;0.40;;
20810;SDS011;10566;52.928;10.522;2022-09-21T14:23:27;1.50;;;0.50;;
20810;SDS011;10566;52.928;10.522;2022-09-21T14:25:54;1.95;;;0.47;;
20810;SDS011;10566;52.928;10.522;2022-09-21T14:29:04;0.77;;;0.30;;
20810;SDS011;10566;52.928;10.522;2022-09-21T14:31:16;3.63;;;0.60;;
20810;SDS011;10566;52.928;10.522;2022-09-21T14:33:44;1.17;;;0.30;;
20810;SDS011;10566;52.928;10.522;2022-09-21T14:36:13;1.25;;;0.40;;
20810;SDS011;10566;52.928;10.522;2022-09-21T14:38:42;1.60;;;0.40;;
20810;SDS011;10566;52.928;10.522;2022-09-21T14:41:13;1.73;;;0.40;;
20810;SDS011;10566;52.928;10.522;2022-09-21T14:43:42;0.82;;;0.30;;
20810;SDS011;10566;52.928;10.522;2022-09-21T14:49:01;1.45;;;0.40;;
20810;SDS011;10566;52.928;10.522;2022-09-21T14:54:26;1.10;;;0.30;;
20810;SDS011;10566;52.928;10.522;2022-09-21T14:57:02;2.80;;;0.35;;
20810;SDS011;10566;52.928;10.522;2022-09-21T15:02:25;1.40;;;0.52;;
20810;SDS011;10566;52.928;10.522;2022-09-21T15:07:30;2.75;;;0.50;;
20810;SDS011;10566;52.928;10.522;2022-09-21T15:13:08;2.85;;;0.30;;
20810;SDS011;10566;52.928;10.522;2022-09-21T15:15:37;1.75;;;0.30;;
20810;SDS011;10566;52.928;10.522;2022-09-21T15:18:12;1.30;;;0.32;;
20810;SDS011;10566;52.928;10.522;2022-09-21T15:20:44;1.35;;;0.28;;
20810;SDS011;10566;52.928;10.522;2022-09-21T15:23:16;1.02;;;0.40;;
20810;SDS011;10566;52.928;10.522;2022-09-21T15:25:43;1.52;;;0.40;;
20810;SDS011;10566;52.928;10.522;2022-09-21T15:28:19;2.97;;;0.50;;
20810;SDS011;10566;52.928;10.522;2022-09-21T15:30:46;5.35;;;0.45;;
20810;SDS011;10566;52.928;10.522;2022-09-21T15:33:12;1.67;;;0.40;;
20810;SDS011;10566;52.928;10.522;2022-09-21T15:35:38;1.15;;;0.40;;
20810;SDS011;10566;52.928;10.522;2022-09-21T15:38:23;1.13;;;0.30;;
20810;SDS011;10566;52.928;10.522;2022-09-21T15:40:50;2.70;;;0.40;;
20810;SDS011;10566;52.928;10.522;2022-09-21T15:43:16;1.85;;;0.40;;
20810;SDS011;10566;52.928;10.522;2022-09-21T15:45:56;1.30;;;0.30;;
20810;SDS011;10566;52.928;10.522;2022-09-21T15:48:25;1.15;;;0.30;;
20810;SDS011;10566;52.928;10.522;2022-09-21T15:50:55;1.55;;;0.40;;
20810;SDS011;10566;52.928;10.522;2022-09-21T15:53:30;1.45;;;0.40;;
20810;SDS011;10566;52.928;10.522;2022-09-21T15:55:58;3.38;;;1.00;;
20810;SDS011;10566;52.928;10.522;2022-09-21T16:00:57;1.52;;;0.60;;
20810;SDS011;10566;52.928;10.522;2022-09-21T16:03:23;3.53;;;0.77;;
20810;SDS011;10566;52.928;10.522;2022-09-21T16:05:53;3.72;;;0.80;;
20810;SDS011;10566;52.928;10.522;2022-09-21T16:10:46;4.38;;;1.00;;
20810;SDS011;10566;52.928;10.522;2022-09-21T16:16:07;3.83;;;0.82;;
20810;SDS011;10566;52.928;10.522;2022-09-21T16:21:08;10.10;;;6.35;;
20810;SDS011;10566;52.928;10.522;2022-09-21T16:23:34;15.65;;;10.75;;
20810;SDS011;10566;52.928;10.522;2022-09-21T16:26:03;8.27;;;5.05;;
20810;SDS011;10566;52.928;10.522;2022-09-21T16:28:39;9.00;;;4.03;;
20810;SDS011;10566;52.928;10.522;2022-09-21T16:38:43;6.03;;;1.95;;
20810;SDS011;10566;52.928;10.522;2022-09-21T16:41:11;5.85;;;2.40;;
20810;SDS011;10566;52.928;10.522;2022-09-21T16:43:38;6.90;;;2.20;;
20810;SDS011;10566;52.928;10.522;2022-09-21T16:46:07;5.60;;;2.20;;
20810;SDS011;10566;52.928;10.522;2022-09-21T16:48:33;5.10;;;1.85;;
20810;SDS011;10566;52.928;10.522;2022-09-21T16:50:59;7.10;;;2.00;;
20810;SDS011;10566;52.928;10.522;2022-09-21T16:53:25;6.28;;;2.65;;
20810;SDS011;10566;52.928;10.522;2022-09-21T16:55:51;9.05;;;3.40;;
20810;SDS011;10566;52.928;10.522;2022-09-21T16:58:18;11.95;;;4.82;;
20810;SDS011;10566;52.928;10.522;2022-09-21T17:00:51;10.13;;;5.32;;
20810;SDS011;10566;52.928;10.522;2022-09-21T17:03:18;12.32;;;5.97;;
20810;SDS011;10566;52.928;10.522;2022-09-21T17:05:44;14.07;;;6.47;;
20810;SDS011;10566;52.928;10.522;2022-09-21T17:08:11;11.48;;;6.38;;
20810;SDS011;10566;52.928;10.522;2022-09-21T17:10:38;12.93;;;6.53;;
20810;SDS011;10566;52.928;10.522;2022-09-21T17:13:06;12.73;;;6.00;;
20810;SDS011;10566;52.928;10.522;2022-09-21T17:15:33;12.37;;;6.27;;
20810;SDS011;10566;52.928;10.522;2022-09-21T17:18:00;13.17;;;5.97;;
20810;SDS011;10566;52.928;10.522;2022-09-21T17:20:34;15.18;;;5.85;;
20810;SDS011;10566;52.928;10.522;2022-09-21T17:23:00;10.20;;;4.93;;
20810;SDS011;10566;52.928;10.522;2022-09-21T17:25:27;11.43;;;4.80;;
20810;SDS011;10566;52.928;10.522;2022-09-21T17:27:53;7.90;;;3.83;;
20810;SDS011;10566;52.928;10.522;2022-09-21T17:30:22;9.45;;;3.95;;
20810;SDS011;10566;52.928;10.522;2022-09-21T17:32:49;9.40;;;3.43;;
20810;SDS011;10566;52.928;10.522;2022-09-21T17:35:24;8.33;;;3.10;;
20810;SDS011;10566;52.928;10.522;2022-09-21T17:37:55;10.40;;;2.97;;
20810;SDS011;10566;52.928;10.522;2022-09-21T17:40:21;10.37;;;3.30;;